createdAt,value
2019-03-19T00:01:27.027Z,0.60
2019-03-19T00:04:13.920Z,0.60
2019-03-19T00:07:00.185Z,0.50
2019-03-19T00:09:48.151Z,0.50
2019-03-19T00:12:34.479Z,0.72
2019-03-19T00:15:20.871Z,0.60
2019-03-19T00:18:07.220Z,0.72
2019-03-19T00:20:53.608Z,0.62
2019-03-19T00:23:39.308Z,0.53
2019-03-19T00:26:25.648Z,0.60
2019-03-19T00:29:11.428Z,0.55
2019-03-19T00:31:57.947Z,0.60
2019-03-19T00:34:44.220Z,0.65
2019-03-19T00:37:30.678Z,0.60
2019-03-19T00:40:17.156Z,0.70
2019-03-19T00:43:03.472Z,0.50
2019-03-19T00:45:49.744Z,0.40
2019-03-19T00:48:36.342Z,0.60
2019-03-19T00:51:22.627Z,0.60
2019-03-19T00:54:08.555Z,0.50
2019-03-19T00:56:54.894Z,0.70
2019-03-19T00:59:41.553Z,0.60
2019-03-19T01:02:27.833Z,0.50
2019-03-19T01:05:14.408Z,0.57
2019-03-19T01:08:00.502Z,0.57
2019-03-19T01:10:46.539Z,0.50
2019-03-19T01:13:32.905Z,0.50
2019-03-19T01:16:19.198Z,0.60
2019-03-19T01:19:05.464Z,0.50
2019-03-19T01:21:52.067Z,0.50
2019-03-19T01:24:38.387Z,0.53
2019-03-19T01:27:24.960Z,0.50
2019-03-19T01:30:12.019Z,0.40
2019-03-19T01:32:57.975Z,0.50
2019-03-19T01:35:44.288Z,0.72
2019-03-19T01:38:30.688Z,0.80
2019-03-19T01:41:17.066Z,0.60
2019-03-19T01:44:03.739Z,0.50
2019-03-19T01:46:50.061Z,0.60
2019-03-19T01:49:36.479Z,0.50
2019-03-19T01:52:22.732Z,0.42
2019-03-19T01:55:09.289Z,0.78
2019-03-19T01:57:55.604Z,0.50
2019-03-19T02:00:43.987Z,0.50
2019-03-19T02:03:32.289Z,0.47
2019-03-19T02:06:20.639Z,0.60
2019-03-19T02:09:10.431Z,0.50
2019-03-19T02:11:58.979Z,0.62
2019-03-19T02:14:46.881Z,0.60
2019-03-19T02:17:34.804Z,0.60
2019-03-19T02:20:21.051Z,0.60
2019-03-19T02:23:09.079Z,0.42
2019-03-19T02:25:55.349Z,0.30
2019-03-19T02:28:41.727Z,0.60
2019-03-19T02:31:29.220Z,0.40
2019-03-19T02:34:15.948Z,0.50
2019-03-19T02:37:02.157Z,0.40
2019-03-19T02:39:50.392Z,0.50
2019-03-19T02:42:38.730Z,0.55
2019-03-19T02:45:27.039Z,0.72
2019-03-19T02:48:14.850Z,0.40
2019-03-19T02:51:01.314Z,0.50
2019-03-19T02:53:49.598Z,0.42
2019-03-19T02:56:37.473Z,0.40
2019-03-19T02:59:23.864Z,0.55
2019-03-19T03:02:10.829Z,0.40
2019-03-19T03:04:57.117Z,0.50
2019-03-19T03:07:45.040Z,0.50
2019-03-19T03:10:32.976Z,0.45
2019-03-19T03:13:21.454Z,0.50
2019-03-19T03:16:07.801Z,0.50
2019-03-19T03:18:54.537Z,0.53
2019-03-19T03:21:40.847Z,0.50
2019-03-19T03:24:27.471Z,0.40
2019-03-19T03:27:15.329Z,0.42
2019-03-19T03:30:04.841Z,0.45
2019-03-19T03:32:51.188Z,0.50
2019-03-19T03:35:39.725Z,0.50
2019-03-19T03:38:27.629Z,0.60
2019-03-19T03:41:14.087Z,0.47
2019-03-19T03:44:00.308Z,0.55
2019-03-19T03:46:46.983Z,0.40
2019-03-19T03:49:32.960Z,0.40
2019-03-19T03:52:20.307Z,0.30
2019-03-19T03:55:07.220Z,0.40
2019-03-19T03:57:53.443Z,0.60
2019-03-19T04:00:39.672Z,0.45
2019-03-19T04:03:25.583Z,0.37
2019-03-19T04:06:12.168Z,0.40
2019-03-19T04:08:58.410Z,0.47
2019-03-19T04:11:44.730Z,0.45
2019-03-19T04:14:31.220Z,0.37
2019-03-19T04:17:17.675Z,0.30
2019-03-19T04:20:04.787Z,0.35
2019-03-19T04:22:51.029Z,0.40
2019-03-19T04:25:37.371Z,0.40
2019-03-19T04:28:23.830Z,0.50
2019-03-19T04:31:09.969Z,0.40
2019-03-19T04:33:56.280Z,0.30
2019-03-19T04:36:42.923Z,0.37
2019-03-19T04:39:31.060Z,0.35
2019-03-19T04:42:17.204Z,0.35
2019-03-19T04:45:04.024Z,0.30
2019-03-19T04:47:49.935Z,0.20
2019-03-19T04:50:36.521Z,0.47
2019-03-19T04:53:24.601Z,0.40
2019-03-19T04:56:10.872Z,0.30
2019-03-19T04:58:57.877Z,0.30
2019-03-19T05:01:44.351Z,0.30
2019-03-19T05:04:30.456Z,0.30
2019-03-19T05:07:16.880Z,0.33
2019-03-19T05:10:04.656Z,0.47
2019-03-19T05:12:50.668Z,0.40
2019-03-19T05:15:36.979Z,0.30
2019-03-19T05:18:23.439Z,0.30
2019-03-19T05:21:09.820Z,0.30
2019-03-19T05:23:56.022Z,0.42
2019-03-19T05:26:42.497Z,0.40
2019-03-19T05:29:28.845Z,0.35
2019-03-19T05:32:15.405Z,0.50
2019-03-19T05:35:01.716Z,0.30
2019-03-19T05:37:48.096Z,0.40
2019-03-19T05:40:34.494Z,0.25
2019-03-19T05:43:20.846Z,0.30
2019-03-19T05:46:07.192Z,0.53
2019-03-19T05:48:53.819Z,0.30
2019-03-19T05:51:40.055Z,0.30
2019-03-19T05:54:26.637Z,0.45
2019-03-19T05:57:13.005Z,0.30
2019-03-19T05:59:59.409Z,0.30
2019-03-19T06:02:45.682Z,0.33
2019-03-19T06:05:32.003Z,0.40
2019-03-19T06:08:18.246Z,0.33
2019-03-19T06:11:04.497Z,0.30
2019-03-19T06:13:51.081Z,0.30
2019-03-19T06:16:37.340Z,0.30
2019-03-19T06:19:23.664Z,0.30
2019-03-19T06:22:10.235Z,0.40
2019-03-19T06:24:56.516Z,0.37
2019-03-19T06:27:42.313Z,0.42
2019-03-19T06:30:28.560Z,0.20
2019-03-19T06:33:14.980Z,0.80
2019-03-19T06:36:01.083Z,0.78
2019-03-19T06:38:47.576Z,0.80
2019-03-19T06:41:34.175Z,0.40
2019-03-19T06:44:20.417Z,1.17
2019-03-19T06:47:06.483Z,0.50
2019-03-19T06:49:54.379Z,0.57
2019-03-19T06:52:41.032Z,0.40
2019-03-19T06:55:27.075Z,0.70
2019-03-19T06:58:13.299Z,1.00
2019-03-19T07:00:59.975Z,0.90
2019-03-19T07:03:46.089Z,0.80
2019-03-19T07:06:32.444Z,1.00
2019-03-19T07:09:18.840Z,1.40
2019-03-19T07:12:05.238Z,1.20
2019-03-19T07:14:51.647Z,0.80
2019-03-19T07:17:38.130Z,1.00
2019-03-19T07:20:24.467Z,0.90
2019-03-19T07:23:10.413Z,0.90
2019-03-19T07:25:56.812Z,0.72
2019-03-19T07:28:43.319Z,0.98
2019-03-19T07:31:31.054Z,0.80
2019-03-19T07:34:17.412Z,0.82
2019-03-19T07:37:03.583Z,1.20
2019-03-19T07:39:50.031Z,0.93
2019-03-19T07:42:36.334Z,0.90
2019-03-19T07:45:22.607Z,0.95
2019-03-19T07:48:09.023Z,0.95
2019-03-19T07:50:55.327Z,0.78
2019-03-19T07:53:41.550Z,1.42
2019-03-19T07:56:29.016Z,0.90
2019-03-19T07:59:15.305Z,1.30
2019-03-19T08:02:01.380Z,1.15
2019-03-19T08:04:47.833Z,0.95
2019-03-19T08:07:34.459Z,0.70
2019-03-19T08:10:20.512Z,0.90
2019-03-19T08:13:07.051Z,0.78
2019-03-19T08:15:53.167Z,0.90
2019-03-19T08:18:39.887Z,0.78
2019-03-19T08:21:26.323Z,1.07
2019-03-19T08:24:12.835Z,1.55
2019-03-19T08:26:59.138Z,1.25
2019-03-19T08:29:45.887Z,0.98
2019-03-19T08:32:32.399Z,1.77
2019-03-19T08:35:18.644Z,0.70
2019-03-19T08:38:05.019Z,0.90
2019-03-19T08:40:51.347Z,1.45
2019-03-19T08:43:37.150Z,0.75
2019-03-19T08:46:24.005Z,0.80
2019-03-19T08:49:10.295Z,1.00
2019-03-19T08:51:56.806Z,1.52
2019-03-19T08:54:44.108Z,2.00
2019-03-19T08:57:30.446Z,1.65
2019-03-19T09:00:17.561Z,1.40
2019-03-19T09:03:03.577Z,1.45
2019-03-19T09:05:49.921Z,1.22
2019-03-19T09:13:07.631Z,0.85
2019-03-19T09:15:54.163Z,0.88
2019-03-19T09:18:40.029Z,0.80
2019-03-19T09:21:26.210Z,0.70
2019-03-19T09:24:12.535Z,0.90
2019-03-19T09:26:58.796Z,0.60
2019-03-19T09:29:44.936Z,0.62
2019-03-19T09:32:31.405Z,0.70
2019-03-19T09:35:19.006Z,0.80
2019-03-19T09:38:05.021Z,0.80
2019-03-19T09:40:51.489Z,0.55
2019-03-19T09:43:37.947Z,0.80
2019-03-19T09:46:24.259Z,0.88
2019-03-19T09:49:10.719Z,0.60
2019-03-19T09:51:56.999Z,0.68
2019-03-19T09:54:43.300Z,0.50
2019-03-19T09:57:29.607Z,0.50
2019-03-19T10:00:17.039Z,0.50
2019-03-19T10:03:03.308Z,0.50
2019-03-19T10:05:49.692Z,0.57
2019-03-19T10:08:35.920Z,0.50
2019-03-19T10:11:22.078Z,0.40
2019-03-19T10:14:08.333Z,0.47
2019-03-19T10:16:54.651Z,0.37
2019-03-19T10:19:40.656Z,0.65
2019-03-19T10:22:26.918Z,0.50
2019-03-19T10:25:14.326Z,0.50
2019-03-19T10:28:00.832Z,0.37
2019-03-19T10:30:47.058Z,0.37
2019-03-19T10:33:33.412Z,0.50
2019-03-19T10:36:19.908Z,0.40
2019-03-19T10:39:09.099Z,0.30
2019-03-19T10:41:56.131Z,0.35
2019-03-19T10:44:42.152Z,0.30
2019-03-19T10:47:28.459Z,0.40
2019-03-19T10:50:17.087Z,0.33
2019-03-19T10:53:03.023Z,0.40
2019-03-19T10:55:49.233Z,0.40
2019-03-19T10:58:35.559Z,0.30
2019-03-19T11:01:21.921Z,0.55
2019-03-19T11:04:08.071Z,0.40
2019-03-19T11:06:54.386Z,0.50
2019-03-19T11:09:41.338Z,0.40
2019-03-19T11:12:27.479Z,0.50
2019-03-19T11:15:15.084Z,0.40
2019-03-19T11:18:02.571Z,0.40
2019-03-19T11:20:48.763Z,0.50
2019-03-19T11:23:35.111Z,0.30
2019-03-19T11:26:21.634Z,0.45
2019-03-19T11:29:08.048Z,0.40
2019-03-19T11:31:54.316Z,0.25
2019-03-19T11:34:40.805Z,0.20
2019-03-19T11:37:26.997Z,0.50
2019-03-19T11:40:13.975Z,0.40
2019-03-19T11:43:00.396Z,0.20
2019-03-19T11:45:46.595Z,0.25
2019-03-19T11:48:32.943Z,0.30
2019-03-19T11:51:19.323Z,0.25
2019-03-19T11:54:05.036Z,0.33
2019-03-19T11:56:51.099Z,0.20
2019-03-19T11:59:37.369Z,0.20
2019-03-19T12:02:26.304Z,0.30
2019-03-19T12:05:11.484Z,0.25
2019-03-19T12:07:58.247Z,0.30
2019-03-19T12:10:44.379Z,0.30
2019-03-19T12:13:30.372Z,0.50
2019-03-19T12:16:16.647Z,0.40
2019-03-19T12:19:03.039Z,0.40
2019-03-19T12:21:49.423Z,0.30
2019-03-19T12:24:35.677Z,0.60
2019-03-19T12:27:21.944Z,0.30
2019-03-19T12:30:09.632Z,0.30
2019-03-19T12:32:55.933Z,0.35
2019-03-19T12:35:42.288Z,0.30
2019-03-19T19:00:33.279Z,3.08
2019-03-19T19:03:19.681Z,3.35
2019-03-19T19:06:05.996Z,3.85
2019-03-19T19:08:52.642Z,3.20
2019-03-19T19:11:39.167Z,3.98
2019-03-19T19:14:25.127Z,3.87
2019-03-19T19:17:13.222Z,3.85
2019-03-19T19:19:59.356Z,3.20
2019-03-19T19:22:45.613Z,3.90
2019-03-19T19:25:31.760Z,3.50
2019-03-19T19:28:18.027Z,3.55
2019-03-19T19:31:04.096Z,3.52
2019-03-19T19:33:50.471Z,3.55
2019-03-19T19:36:36.836Z,3.17
2019-03-19T19:39:22.711Z,3.15
2019-03-19T19:42:09.144Z,3.42
2019-03-19T19:44:55.716Z,3.00
2019-03-19T19:47:41.926Z,3.58
2019-03-19T19:50:28.460Z,2.98
2019-03-19T19:53:15.848Z,2.92
2019-03-19T19:56:02.157Z,2.77
2019-03-19T19:58:48.500Z,3.00
2019-03-19T20:01:36.064Z,2.58
2019-03-19T20:04:22.255Z,3.33
2019-03-19T20:07:08.539Z,3.05
2019-03-19T20:09:54.518Z,3.12
2019-03-19T20:12:40.760Z,2.65
2019-03-19T20:15:27.215Z,2.52
2019-03-19T20:18:13.596Z,2.45
2019-03-19T20:20:59.959Z,2.52
2019-03-19T20:23:46.658Z,2.27
2019-03-19T20:26:32.990Z,2.50
2019-03-19T20:29:19.416Z,2.75
2019-03-19T20:32:05.768Z,2.60
2019-03-19T20:34:52.150Z,2.40
2019-03-19T20:37:39.668Z,2.62
2019-03-19T20:40:26.051Z,2.08
2019-03-19T20:43:12.437Z,2.27
2019-03-19T20:45:58.866Z,2.10
2019-03-19T20:48:45.164Z,2.60
2019-03-19T20:51:31.082Z,2.17
2019-03-19T20:54:17.492Z,2.08
2019-03-19T20:57:04.093Z,2.00
2019-03-19T20:59:50.439Z,2.70
2019-03-19T21:02:37.403Z,2.90
2019-03-19T21:05:23.696Z,2.83
2019-03-19T21:08:10.031Z,3.05
2019-03-19T21:10:56.494Z,3.20
2019-03-19T21:13:42.779Z,2.98
2019-03-19T21:16:29.408Z,2.95
2019-03-19T21:19:15.883Z,2.87
2019-03-19T21:22:02.641Z,2.70
2019-03-19T21:24:49.141Z,2.35
2019-03-19T21:27:35.644Z,2.98
2019-03-19T21:30:23.343Z,2.62
2019-03-19T21:33:09.624Z,2.70
2019-03-19T21:35:56.227Z,2.55
2019-03-19T21:38:42.437Z,2.50
2019-03-19T21:41:28.842Z,2.40
2019-03-19T21:44:15.351Z,2.42
2019-03-19T21:47:01.615Z,2.27
2019-03-19T21:49:48.152Z,2.50
2019-03-19T21:52:34.159Z,1.80
2019-03-19T21:55:20.448Z,2.40
2019-03-19T21:58:06.903Z,1.90
2019-03-19T22:00:53.315Z,1.90
2019-03-19T22:03:39.628Z,1.95
2019-03-19T22:06:25.999Z,3.20
2019-03-19T22:09:12.495Z,4.97
2019-03-19T22:11:59.039Z,4.80
2019-03-19T22:14:45.615Z,6.10
2019-03-19T22:17:31.915Z,5.30
2019-03-19T22:20:18.322Z,5.28
2019-03-19T22:23:04.683Z,4.70
2019-03-19T22:25:51.645Z,5.00
2019-03-19T22:28:38.015Z,4.42
2019-03-19T22:31:24.027Z,3.98
2019-03-19T22:34:14.144Z,4.95
2019-03-19T22:36:58.921Z,3.75
2019-03-19T22:39:45.228Z,3.83
2019-03-19T22:42:31.548Z,3.62
2019-03-19T22:45:17.836Z,3.65
2019-03-19T22:48:04.289Z,3.55
2019-03-19T22:50:51.766Z,3.30
2019-03-19T22:53:39.312Z,3.60
2019-03-19T22:56:26.686Z,3.25
2019-03-19T22:59:13.866Z,3.00
2019-03-19T23:02:00.656Z,3.12
2019-03-19T23:04:50.094Z,2.90
2019-03-19T23:07:38.945Z,2.77
2019-03-19T23:10:26.783Z,2.37
2019-03-19T23:13:13.537Z,2.75
2019-03-19T23:16:00.256Z,2.72
2019-03-19T23:18:46.476Z,2.80
2019-03-19T23:21:32.642Z,2.15
2019-03-19T23:24:18.624Z,2.42
2019-03-19T23:27:05.222Z,2.25
2019-03-19T23:29:51.471Z,2.42
2019-03-19T23:32:37.907Z,2.20
2019-03-19T23:35:24.420Z,2.50
2019-03-19T23:38:10.755Z,2.25
2019-03-19T23:40:57.220Z,2.15
2019-03-19T23:43:43.625Z,2.00
2019-03-19T23:46:29.958Z,2.10
2019-03-19T23:49:16.619Z,2.20
2019-03-19T23:52:02.727Z,2.08
2019-03-19T23:54:49.048Z,1.85
2019-03-19T23:57:35.453Z,1.90
